Time;durP1;ratioP1;P1;durP2;ratioP2;P2;SDS_P1;SDS_P2;PMS_P1;PMS_P2;Temp;Humidity;BMP_temperature;BMP_pressure;BME280_temperature;BME280_humidity;BME280_pressure;Samples;Min_cycle;Max_cycle;Signal;HPM_P1;HPM_P2
2021/06/08 00:01:05;;;;;;;18.20;14.60;;;17.20;99.90;;;;;;5134308;27;20690;-61
2021/06/08 00:03:32;;;;;;;15.63;13.57;;;17.20;99.90;;;;;;5134571;27;20207;-61
2021/06/08 00:05:59;;;;;;;18.73;13.90;;;17.20;99.90;;;;;;5134599;27;20272;-61
2021/06/08 00:08:25;;;;;;;15.87;14.10;;;17.10;99.90;;;;;;5134597;27;20206;-61
2021/06/08 00:10:51;;;;;;;15.93;13.53;;;17.10;99.90;;;;;;5134415;27;20203;-61
2021/06/08 00:13:18;;;;;;;17.53;14.27;;;17.00;99.90;;;;;;5134370;27;20206;-61
2021/06/08 00:15:44;;;;;;;18.37;15.77;;;17.00;99.90;;;;;;5134137;27;20210;-61
2021/06/08 00:18:11;;;;;;;19.80;16.60;;;16.90;99.90;;;;;;5134382;27;20272;-61
2021/06/08 00:20:38;;;;;;;18.43;16.33;;;16.80;99.90;;;;;;5134287;27;20203;-61
2021/06/08 00:23:04;;;;;;;19.40;16.37;;;16.80;99.90;;;;;;5134212;27;20272;-61
2021/06/08 00:25:30;;;;;;;21.30;17.10;;;16.70;99.90;;;;;;5134212;27;20206;-61
2021/06/08 00:27:57;;;;;;;18.23;16.33;;;16.60;99.90;;;;;;5134244;27;20199;-61
2021/06/08 00:30:24;;;;;;;21.87;16.97;;;16.60;99.90;;;;;;5133760;27;20624;-61
2021/06/08 00:32:51;;;;;;;27.73;18.10;;;16.50;99.90;;;;;;5134301;27;20198;-61
2021/06/08 00:35:18;;;;;;;25.00;19.50;;;16.40;99.90;;;;;;5133995;27;20198;-60
2021/06/08 00:37:44;;;;;;;25.43;19.87;;;16.30;99.90;;;;;;5133763;27;20243;-61
2021/06/08 00:40:12;;;;;;;24.87;20.73;;;16.30;99.90;;;;;;5133828;27;20248;-61
2021/06/08 00:42:38;;;;;;;23.87;19.50;;;16.20;99.90;;;;;;5133863;27;20577;-61
2021/06/08 00:45:06;;;;;;;20.50;17.43;;;16.20;99.90;;;;;;5133594;27;20206;-61
2021/06/08 00:47:32;;;;;;;20.50;17.33;;;16.20;99.90;;;;;;5133912;27;20227;-61
2021/06/08 00:49:58;;;;;;;19.37;16.10;;;16.20;99.90;;;;;;5133638;27;20248;-61
2021/06/08 00:52:26;;;;;;;22.73;16.77;;;16.10;99.90;;;;;;5133806;27;20591;-61
2021/06/08 00:54:53;;;;;;;23.43;16.00;;;16.10;99.90;;;;;;5133573;27;20226;-61
2021/06/08 00:57:19;;;;;;;18.93;16.93;;;16.10;99.90;;;;;;5133400;27;20226;-61
2021/06/08 00:59:45;;;;;;;19.53;16.10;;;15.90;99.90;;;;;;5133620;27;20639;-60
2021/06/08 01:02:14;;;;;;;18.53;14.87;;;15.80;99.90;;;;;;5133263;27;20743;-60
2021/06/08 01:04:40;;;;;;;18.63;14.33;;;15.80;99.90;;;;;;5133592;27;20207;-61
2021/06/08 01:07:06;;;;;;;17.87;14.37;;;15.80;99.90;;;;;;5132911;27;20592;-61
2021/06/08 01:09:34;;;;;;;15.50;13.87;;;15.80;99.90;;;;;;5133385;27;20579;-61
2021/06/08 01:12:00;;;;;;;17.90;14.03;;;15.80;99.90;;;;;;5132933;27;20282;-61
2021/06/08 01:14:26;;;;;;;17.53;13.00;;;15.90;99.90;;;;;;5133473;27;20202;-61
2021/06/08 01:16:53;;;;;;;16.73;13.73;;;15.90;99.90;;;;;;5133276;27;20223;-61
2021/06/08 01:19:20;;;;;;;15.47;12.77;;;15.90;99.90;;;;;;5133392;27;20222;-61
2021/06/08 01:21:47;;;;;;;16.80;12.90;;;15.90;99.90;;;;;;5132955;27;20679;-60
2021/06/08 01:24:13;;;;;;;16.20;13.80;;;15.90;99.90;;;;;;5133182;27;20207;-61
2021/06/08 01:26:40;;;;;;;15.20;13.60;;;15.90;99.90;;;;;;5132935;27;20280;-61
2021/06/08 01:29:06;;;;;;;17.97;14.03;;;16.00;99.90;;;;;;5132982;27;20666;-61
2021/06/08 01:31:34;;;;;;;16.63;13.83;;;16.00;99.90;;;;;;5132814;27;20663;-61
2021/06/08 01:34:01;;;;;;;17.70;13.63;;;15.90;99.90;;;;;;5133103;27;20206;-61
2021/06/08 01:36:32;;;;;;;20.80;13.20;;;16.00;99.90;;;;;;5132763;27;20231;-61
2021/06/08 01:39:00;;;;;;;20.27;14.13;;;16.00;99.90;;;;;;5132707;27;20230;-61
2021/06/08 01:41:27;;;;;;;17.63;13.00;;;16.00;99.90;;;;;;5133049;28;20260;-61
2021/06/08 01:43:54;;;;;;;14.80;13.20;;;16.00;99.90;;;;;;5133022;28;20202;-61
2021/06/08 01:46:22;;;;;;;18.83;13.93;;;16.00;99.90;;;;;;5132972;28;20223;-61
2021/06/08 01:48:48;;;;;;;17.23;13.50;;;16.00;99.90;;;;;;5132778;28;20671;-61
2021/06/08 01:51:23;;;;;;;17.33;13.47;;;16.00;99.90;;;;;;5132735;28;20210;-60
2021/06/08 01:53:57;;;;;;;15.87;13.27;;;16.10;99.90;;;;;;5132695;28;20677;-61
2021/06/08 01:56:28;;;;;;;15.43;13.83;;;16.00;99.90;;;;;;5132938;28;20287;-61
2021/06/08 01:59:04;;;;;;;14.87;12.70;;;16.00;99.90;;;;;;5132804;28;20611;-61
2021/06/08 02:01:40;;;;;;;16.17;14.03;;;16.00;99.90;;;;;;5132684;28;20202;-61
2021/06/08 02:04:11;;;;;;;18.33;13.20;;;16.00;99.90;;;;;;5132737;28;20250;-61
2021/06/08 02:06:43;;;;;;;17.67;13.17;;;16.00;99.90;;;;;;5132778;28;20229;-61
2021/06/08 02:09:18;;;;;;;22.60;14.83;;;16.00;99.90;;;;;;5132801;28;20199;-61
2021/06/08 02:11:49;;;;;;;19.43;14.00;;;16.00;99.90;;;;;;5132558;28;20643;-61
2021/06/08 02:14:21;;;;;;;14.10;12.57;;;16.00;99.90;;;;;;5132664;28;20575;-61
2021/06/08 02:16:52;;;;;;;14.93;13.07;;;16.00;99.90;;;;;;5132549;28;20290;-61
2021/06/08 02:19:21;;;;;;;18.27;15.47;;;16.00;99.90;;;;;;5133678;27;20274;-61
2021/06/08 02:21:50;;;;;;;19.47;14.90;;;16.00;99.90;;;;;;5136523;27;20199;-61
2021/06/08 02:24:18;;;;;;;19.90;15.83;;;16.00;99.90;;;;;;5136476;27;20553;-61
2021/06/08 02:26:48;;;;;;;18.63;14.70;;;16.00;99.90;;;;;;5136387;27;20223;-61
2021/06/08 02:29:16;;;;;;;17.73;14.17;;;16.00;99.90;;;;;;5136348;27;20207;-61
2021/06/08 02:31:43;;;;;;;18.83;13.33;;;16.00;99.90;;;;;;5136162;27;20675;-61
2021/06/08 02:34:11;;;;;;;15.10;13.50;;;16.00;99.90;;;;;;5136593;27;20230;-61
2021/06/08 02:36:37;;;;;;;22.17;14.17;;;16.00;99.90;;;;;;5136147;27;20234;-61
2021/06/08 02:39:05;;;;;;;13.43;12.03;;;16.10;99.90;;;;;;5136248;27;20223;-61
2021/06/08 02:41:32;;;;;;;17.63;13.50;;;16.10;99.90;;;;;;5136083;27;20633;-61
2021/06/08 02:44:01;;;;;;;18.30;13.50;;;16.10;99.90;;;;;;5136319;27;20206;-61
2021/06/08 02:46:27;;;;;;;17.23;14.77;;;16.10;99.90;;;;;;5136357;27;20227;-61
2021/06/08 02:48:55;;;;;;;20.07;14.23;;;16.10;99.90;;;;;;5136259;27;20749;-61
2021/06/08 02:51:22;;;;;;;18.53;12.87;;;16.10;99.90;;;;;;5135994;27;20207;-61
2021/06/08 02:53:50;;;;;;;16.50;13.17;;;16.10;99.90;;;;;;5136008;27;20203;-61
2021/06/08 02:56:17;;;;;;;15.53;12.30;;;16.10;99.90;;;;;;5135739;27;20227;-61
2021/06/08 02:58:45;;;;;;;16.50;13.47;;;16.00;99.90;;;;;;5135871;27;20230;-61
2021/06/08 03:01:15;;;;;;;14.67;12.53;;;16.00;99.90;;;;;;5135871;27;20207;-61
2021/06/08 03:03:43;;;;;;;16.40;12.80;;;16.00;99.90;;;;;;5135987;27;20199;-61
2021/06/08 03:06:13;;;;;;;15.57;13.53;;;15.90;99.90;;;;;;5135735;27;20234;-61
2021/06/08 03:08:45;;;;;;;16.27;13.87;;;15.80;99.90;;;;;;5135627;27;20198;-61
2021/06/08 03:11:23;;;;;;;16.27;14.50;;;15.80;99.90;;;;;;5135830;27;20203;-61
2021/06/08 03:13:51;;;;;;;20.60;13.77;;;15.80;99.90;;;;;;5135805;27;20207;-61
2021/06/08 03:16:20;;;;;;;16.53;13.27;;;15.80;99.90;;;;;;5135622;27;20275;-60
2021/06/08 03:18:50;;;;;;;16.77;14.13;;;15.80;99.90;;;;;;5135539;27;20245;-61
2021/06/08 03:21:20;;;;;;;15.27;13.30;;;15.70;99.90;;;;;;5135123;27;20203;-61
2021/06/08 03:23:51;;;;;;;16.47;13.23;;;15.70;99.90;;;;;;5135391;27;20716;-61
2021/06/08 03:26:19;;;;;;;18.87;13.43;;;15.70;99.90;;;;;;5135100;27;20280;-61
2021/06/08 03:28:47;;;;;;;16.47;13.43;;;15.70;99.90;;;;;;5135351;27;20210;-60
2021/06/08 03:31:15;;;;;;;16.37;14.00;;;15.70;1.00;;;;;;5134554;27;20693;-61
2021/06/08 03:33:43;;;;;;;17.07;14.13;;;15.60;1.00;;;;;;5135115;27;20203;-61
2021/06/08 03:36:12;;;;;;;17.17;13.73;;;15.60;1.00;;;;;;5135049;27;20242;-61
2021/06/08 03:38:39;;;;;;;19.10;14.23;;;15.60;1.00;;;;;;5135243;27;20225;-61
2021/06/08 03:41:06;;;;;;;18.47;12.33;;;15.60;1.00;;;;;;5134921;27;20226;-61
2021/06/08 03:43:32;;;;;;;15.57;13.37;;;15.70;1.00;;;;;;5135102;27;20619;-61
2021/06/08 03:45:59;;;;;;;15.93;12.20;;;15.70;1.00;;;;;;5134788;27;20328;-61
2021/06/08 03:48:25;;;;;;;17.97;13.33;;;15.70;1.00;;;;;;5134835;27;20211;-61
2021/06/08 03:50:53;;;;;;;16.47;13.17;;;15.80;1.00;;;;;;5134849;27;20199;-61
2021/06/08 03:53:20;;;;;;;19.13;15.40;;;15.80;1.00;;;;;;5134911;27;20211;-61
2021/06/08 03:55:49;;;;;;;17.27;14.97;;;15.80;1.00;;;;;;5134862;27;20576;-61
2021/06/08 03:58:18;;;;;;;19.27;14.23;;;15.80;1.00;;;;;;5134651;27;20214;-61
2021/06/08 04:00:46;;;;;;;18.77;14.70;;;15.90;1.00;;;;;;5134431;27;20255;-60
2021/06/08 04:03:14;;;;;;;19.93;15.30;;;15.90;1.00;;;;;;5134785;27;20199;-61
2021/06/08 04:05:41;;;;;;;20.63;15.13;;;15.90;1.00;;;;;;5134623;27;20210;-61
2021/06/08 04:08:10;;;;;;;17.13;14.43;;;16.00;1.00;;;;;;5134531;27;20622;-61
2021/06/08 04:10:36;;;;;;;17.07;14.30;;;16.00;1.00;;;;;;5134536;27;20906;-61
2021/06/08 04:13:04;;;;;;;19.63;14.07;;;16.00;1.00;;;;;;5134315;27;20241;-61
2021/06/08 04:15:30;;;;;;;18.50;14.53;;;16.00;1.00;;;;;;5134222;27;20214;-61
2021/06/08 04:17:57;;;;;;;21.47;14.70;;;16.10;1.00;;;;;;5134501;27;20206;-61
2021/06/08 04:20:26;;;;;;;17.47;14.10;;;16.00;1.00;;;;;;5122872;27;20239;-61
2021/06/08 04:22:56;;;;;;;19.13;15.40;;;16.00;1.00;;;;;;5113642;28;20214;-61
2021/06/08 04:25:25;;;;;;;16.00;14.23;;;16.00;99.90;;;;;;5123042;27;20633;-61
2021/06/08 04:27:52;;;;;;;19.57;14.60;;;16.10;99.90;;;;;;5134015;27;20227;-61
2021/06/08 04:30:19;;;;;;;21.07;15.67;;;16.10;99.90;;;;;;5134179;27;20203;-61
2021/06/08 04:32:46;;;;;;;22.63;15.37;;;16.10;1.00;;;;;;5134196;27;20206;-60
2021/06/08 04:35:14;;;;;;;20.87;15.40;;;16.10;99.90;;;;;;5131611;27;20206;-61
2021/06/08 04:37:41;;;;;;;21.10;15.53;;;16.10;99.90;;;;;;5134000;27;20231;-61
2021/06/08 04:40:08;;;;;;;20.20;15.40;;;16.20;99.90;;;;;;5133792;27;20566;-63
2021/06/08 04:42:37;;;;;;;19.03;15.60;;;16.20;99.90;;;;;;5132705;27;20215;-60
2021/06/08 04:45:04;;;;;;;18.93;15.43;;;16.20;99.90;;;;;;5133898;27;20583;-61
2021/06/08 04:47:31;;;;;;;17.80;15.07;;;16.30;99.90;;;;;;5133722;27;20628;-61
2021/06/08 04:49:57;;;;;;;20.50;16.67;;;16.40;99.90;;;;;;5133830;27;20683;-61
2021/06/08 04:52:23;;;;;;;22.07;17.20;;;16.30;99.90;;;;;;5133462;27;20202;-61
2021/06/08 04:54:49;;;;;;;20.60;16.77;;;16.40;1.00;;;;;;5133743;27;20205;-61
2021/06/08 04:57:16;;;;;;;25.33;18.50;;;16.40;1.00;;;;;;5133272;27;20223;-61
2021/06/08 04:59:50;;;;;;;24.93;21.10;;;16.40;99.90;;;;;;5133479;27;20218;-61
2021/06/08 05:02:23;;;;;;;29.37;20.60;;;16.30;1.00;;;;;;5133523;27;20259;-61
2021/06/08 05:04:50;;;;;;;23.43;20.43;;;16.30;1.00;;;;;;5133325;27;20249;-61
2021/06/08 05:07:19;;;;;;;26.40;20.67;;;16.30;1.00;;;;;;5133015;27;20222;-61
2021/06/08 05:09:47;;;;;;;28.50;20.03;;;16.30;1.00;;;;;;5133474;27;20214;-61
2021/06/08 05:12:17;;;;;;;23.03;19.83;;;16.40;1.00;;;;;;5133289;27;20210;-61
2021/06/08 05:14:49;;;;;;;26.17;20.53;;;16.50;1.00;;;;;;5133352;27;20225;-61
2021/06/08 05:17:18;;;;;;;25.67;20.83;;;16.50;1.00;;;;;;5133154;27;20226;-61
2021/06/08 05:19:45;;;;;;;25.30;20.87;;;16.50;1.00;;;;;;5132965;27;20222;-60
2021/06/08 05:22:12;;;;;;;26.87;22.53;;;16.60;1.00;;;;;;5132957;27;20213;-61
2021/06/08 05:24:39;;;;;;;30.33;24.07;;;16.60;1.00;;;;;;5133194;27;20199;-59
2021/06/08 05:27:09;;;;;;;31.47;23.63;;;16.60;1.00;;;;;;5133108;27;20219;-58
2021/06/08 05:29:35;;;;;;;29.60;25.07;;;16.70;1.00;;;;;;5133041;27;20203;-61
2021/06/08 05:32:03;;;;;;;33.70;25.67;;;16.70;1.00;;;;;;5132670;27;20203;-65
2021/06/08 05:34:30;;;;;;;32.87;25.17;;;16.80;1.00;;;;;;5120304;27;20199;-65
2021/06/08 05:36:56;;;;;;;26.77;21.53;;;16.90;1.00;;;;;;5111280;28;20235;-65
2021/06/08 05:39:22;;;;;;;35.13;25.73;;;17.10;1.00;;;;;;5123838;27;20219;-65
2021/06/08 05:41:48;;;;;;;34.87;26.20;;;17.20;1.00;;;;;;5132541;28;20207;-66
2021/06/08 05:44:14;;;;;;;31.90;26.63;;;17.20;1.00;;;;;;5132783;28;20608;-64
2021/06/08 05:46:42;;;;;;;39.93;26.57;;;17.30;1.00;;;;;;5186452;22;20221;-64
2021/06/08 05:49:10;;;;;;;35.60;27.87;;;17.50;1.00;;;;;;5071337;28;20212;-64
2021/06/08 05:51:37;;;;;;;34.23;27.67;;;17.60;99.90;;;;;;5055079;28;20209;-65
2021/06/08 05:54:07;;;;;;;46.57;27.73;;;17.60;99.90;;;;;;5053672;28;20212;-67
2021/06/08 05:56:35;;;;;;;35.60;28.67;;;17.70;99.90;;;;;;5055142;28;20248;-65
2021/06/08 05:59:01;;;;;;;35.77;27.30;;;17.70;99.90;;;;;;5055369;28;20253;-66
2021/06/08 06:01:28;;;;;;;39.03;30.43;;;17.80;99.90;;;;;;5054944;28;20220;-58
2021/06/08 06:03:54;;;;;;;37.17;28.53;;;17.70;99.90;;;;;;5055433;28;20209;-64
2021/06/08 06:06:23;;;;;;;37.07;29.63;;;17.70;99.90;;;;;;5055011;28;20229;-63
2021/06/08 06:08:49;;;;;;;33.60;28.20;;;17.80;99.90;;;;;;5055171;28;20690;-64
2021/06/08 06:11:16;;;;;;;33.23;26.73;;;18.00;99.90;;;;;;5054946;28;20690;-63
2021/06/08 06:13:47;;;;;;;32.20;26.97;;;18.10;99.90;;;;;;5055028;28;20217;-64
2021/06/08 06:16:16;;;;;;;34.80;26.40;;;18.10;99.90;;;;;;5054588;28;20225;-63
2021/06/08 06:18:42;;;;;;;37.13;27.20;;;18.10;99.90;;;;;;5055011;28;20272;-64
2021/06/08 06:21:10;;;;;;;36.73;27.53;;;18.10;99.90;;;;;;5054988;28;20209;-63
2021/06/08 06:23:38;;;;;;;35.37;26.93;;;18.20;99.90;;;;;;5054919;28;20613;-64
2021/06/08 06:26:05;;;;;;;35.30;27.57;;;18.30;99.90;;;;;;5054683;28;20482;-64
2021/06/08 06:28:32;;;;;;;34.90;27.03;;;18.10;99.90;;;;;;5054303;28;20206;-63
2021/06/08 06:30:58;;;;;;;34.87;27.10;;;18.20;99.90;;;;;;5054838;28;20209;-63
2021/06/08 06:33:24;;;;;;;32.63;27.47;;;18.20;99.90;;;;;;5055051;28;20205;-63
2021/06/08 06:35:51;;;;;;;38.40;28.43;;;18.30;99.90;;;;;;5054396;28;20225;-63
2021/06/08 06:38:18;;;;;;;33.63;27.77;;;18.40;99.90;;;;;;5054820;28;20209;-63
2021/06/08 06:40:47;;;;;;;31.67;26.47;;;18.40;99.90;;;;;;5054413;28;20711;-63
2021/06/08 06:43:17;;;;;;;32.27;25.07;;;18.40;99.90;;;;;;5054596;28;20206;-62
2021/06/08 06:45:45;;;;;;;43.87;33.63;;;18.30;99.90;;;;;;5054179;28;20216;-62
2021/06/08 06:48:15;;;;;;;29.37;23.60;;;18.30;99.90;;;;;;5054296;28;20236;-62
2021/06/08 06:50:42;;;;;;;30.93;25.33;;;18.30;99.90;;;;;;5054558;28;20202;-62
2021/06/08 06:53:10;;;;;;;28.63;24.10;;;18.30;99.90;;;;;;5054365;28;20202;-63
2021/06/08 06:55:37;;;;;;;29.87;25.07;;;18.30;99.90;;;;;;5053867;28;20213;-63
2021/06/08 06:58:06;;;;;;;31.53;23.53;;;18.40;99.90;;;;;;5054231;28;20212;-62
2021/06/08 07:00:32;;;;;;;30.73;24.10;;;18.50;99.90;;;;;;5054022;28;20229;-63
2021/06/08 07:03:00;;;;;;;33.10;24.10;;;18.50;99.90;;;;;;5054294;28;20202;-62
2021/06/08 07:05:29;;;;;;;27.97;23.67;;;18.70;99.90;;;;;;5053277;28;20202;-61
2021/06/08 07:07:57;;;;;;;33.53;22.67;;;18.80;99.90;;;;;;5054266;28;20562;-62
2021/06/08 07:10:26;;;;;;;27.87;21.83;;;18.90;99.90;;;;;;5053701;28;20209;-63
2021/06/08 07:12:54;;;;;;;28.97;21.67;;;19.20;99.90;;;;;;5054064;28;20209;-63
2021/06/08 07:15:25;;;;;;;32.17;22.07;;;19.40;99.90;;;;;;5053966;28;20296;-63
2021/06/08 07:17:52;;;;;;;34.43;21.90;;;19.60;99.90;;;;;;5053959;28;20221;-63
2021/06/08 07:20:19;;;;;;;28.87;21.37;;;19.80;99.90;;;;;;5053620;28;20605;-62
2021/06/08 07:22:46;;;;;;;29.77;21.70;;;19.80;99.90;;;;;;5053849;28;20283;-63
2021/06/08 07:25:16;;;;;;;22.23;18.97;;;19.50;99.90;;;;;;5053735;28;20209;-63
2021/06/08 07:27:42;;;;;;;25.20;18.77;;;19.50;99.90;;;;;;5053825;28;20280;-63
2021/06/08 07:30:10;;;;;;;23.73;17.53;;;19.70;99.90;;;;;;5053837;28;20209;-62
2021/06/08 07:32:43;;;;;;;25.60;16.73;;;20.10;99.90;;;;;;5053751;28;20696;-61
2021/06/08 07:35:15;;;;;;;19.50;15.83;;;20.60;99.90;;;;;;5053584;28;20233;-62
2021/06/08 07:37:46;;;;;;;20.70;14.60;;;21.00;99.90;;;;;;5053593;28;20295;-62
2021/06/08 07:40:18;;;;;;;22.13;12.57;;;20.90;99.90;;;;;;5053113;28;20279;-63
2021/06/08 07:42:49;;;;;;;15.90;13.57;;;21.20;99.90;;;;;;5053369;28;20209;-62
2021/06/08 07:45:19;;;;;;;19.43;15.60;;;21.20;99.90;;;;;;5053337;28;20607;-63
2021/06/08 07:47:49;;;;;;;19.10;15.53;;;20.80;99.90;;;;;;5052946;28;20287;-63
2021/06/08 07:50:16;;;;;;;23.27;17.17;;;21.00;99.90;;;;;;5053311;28;20228;-63
2021/06/08 07:52:43;;;;;;;21.13;15.10;;;21.10;99.90;;;;;;5053430;28;20210;-64
2021/06/08 07:55:11;;;;;;;20.37;14.30;;;21.40;99.90;;;;;;5053222;28;20209;-62
2021/06/08 07:57:37;;;;;;;18.43;14.03;;;21.70;99.90;;;;;;5053184;28;20226;-63
2021/06/08 08:00:05;;;;;;;21.00;15.53;;;21.70;99.90;;;;;;5053008;28;20222;-63
2021/06/08 08:02:32;;;;;;;22.37;15.93;;;21.60;99.90;;;;;;5053080;28;20760;-62
2021/06/08 08:05:07;;;;;;;19.87;15.73;;;21.70;99.90;;;;;;5052992;28;20205;-63
2021/06/08 08:07:35;;;;;;;21.57;16.13;;;22.20;99.90;;;;;;5053215;28;20283;-62
2021/06/08 08:10:01;;;;;;;18.20;15.87;;;22.10;99.90;;;;;;5052872;28;20202;-63
2021/06/08 08:12:27;;;;;;;20.20;16.53;;;22.10;99.90;;;;;;5052935;28;20206;-63
2021/06/08 08:14:55;;;;;;;20.20;14.87;;;22.10;99.90;;;;;;5052455;28;20205;-63
2021/06/08 08:17:24;;;;;;;17.00;14.17;;;22.20;99.90;;;;;;5051901;28;20221;-63
2021/06/08 08:19:50;;;;;;;16.30;12.80;;;22.00;99.90;;;;;;5052697;28;20856;-64
2021/06/08 08:22:18;;;;;;;20.10;15.17;;;21.50;99.90;;;;;;5052593;28;20567;-64
2021/06/08 08:24:44;;;;;;;17.67;14.10;;;21.50;99.90;;;;;;5052841;28;20213;-65
2021/06/08 08:27:13;;;;;;;16.87;12.50;;;21.20;99.90;;;;;;5053012;28;20240;-65
2021/06/08 08:29:41;;;;;;;15.87;13.07;;;21.20;99.90;;;;;;5052758;28;20209;-64
2021/06/08 08:32:08;;;;;;;16.13;13.07;;;20.80;99.90;;;;;;5070954;28;20228;-65
2021/06/08 08:34:34;;;;;;;20.80;13.57;;;20.90;99.90;;;;;;5072075;28;20212;-65
2021/06/08 08:37:02;;;;;;;13.67;12.27;;;21.00;99.90;;;;;;5072681;28;20274;-66
2021/06/08 08:39:29;;;;;;;15.20;12.93;;;20.90;99.90;;;;;;5073188;28;20599;-65
2021/06/08 08:41:56;;;;;;;10.70;9.40;;;20.70;99.90;;;;;;5072184;28;20259;-66
2021/06/08 08:44:22;;;;;;;11.53;9.23;;;20.90;99.90;;;;;;5072466;28;20263;-66
2021/06/08 08:46:48;;;;;;;12.80;8.97;;;21.00;99.90;;;;;;5071859;28;20241;-65
2021/06/08 08:49:14;;;;;;;14.97;11.63;;;21.00;99.90;;;;;;5072172;28;20196;-65
2021/06/08 08:51:42;;;;;;;16.47;13.40;;;21.20;99.90;;;;;;5072261;28;20255;-65
2021/06/08 08:54:12;;;;;;;16.00;14.20;;;21.30;99.90;;;;;;5072020;28;20212;-64
2021/06/08 08:56:41;;;;;;;14.70;12.00;;;20.90;99.90;;;;;;5071611;28;20221;-66
2021/06/08 08:59:10;;;;;;;15.87;12.77;;;20.90;99.90;;;;;;5071996;28;20233;-67
2021/06/08 09:01:40;;;;;;;17.87;13.27;;;20.90;99.90;;;;;;5071885;28;20200;-65
2021/06/08 09:04:07;;;;;;;16.13;12.50;;;20.90;99.90;;;;;;5072024;28;20205;-65
2021/06/08 09:06:34;;;;;;;17.23;13.43;;;21.00;99.90;;;;;;5071545;28;20232;-66
2021/06/08 09:09:01;;;;;;;15.80;12.70;;;20.90;99.90;;;;;;5071698;28;20200;-66
2021/06/08 09:11:30;;;;;;;18.30;12.90;;;20.60;99.90;;;;;;5071762;28;20642;-65
2021/06/08 09:13:58;;;;;;;13.27;11.87;;;20.30;99.90;;;;;;5071885;28;20250;-66
2021/06/08 09:16:25;;;;;;;13.10;11.70;;;20.20;99.90;;;;;;5071240;28;20221;-64
2021/06/08 09:18:52;;;;;;;13.07;10.50;;;20.20;99.90;;;;;;5071777;28;20274;-63
2021/06/08 09:21:20;;;;;;;11.67;9.97;;;20.30;99.90;;;;;;5071416;28;20254;-66
2021/06/08 09:23:47;;;;;;;11.17;9.10;;;20.80;99.90;;;;;;5071423;28;20213;-66
2021/06/08 09:26:15;;;;;;;10.10;8.27;;;21.10;99.90;;;;;;5071377;28;20232;-67
2021/06/08 09:28:42;;;;;;;14.10;9.43;;;21.20;99.90;;;;;;5055210;28;20723;-63
2021/06/08 09:31:14;;;;;;;10.33;8.60;;;21.30;99.90;;;;;;5051389;28;20217;-63
2021/06/08 09:33:42;;;;;;;10.80;8.80;;;21.40;99.90;;;;;;5051363;28;20205;-63
2021/06/08 09:36:10;;;;;;;10.93;8.80;;;21.60;99.90;;;;;;5050933;28;20234;-65
2021/06/08 09:38:42;;;;;;;12.13;8.83;;;21.70;99.90;;;;;;5051646;28;20202;-65
2021/06/08 09:41:20;;;;;;;12.77;10.37;;;21.90;99.90;;;;;;5051393;28;20287;-66
2021/06/08 09:43:51;;;;;;;12.73;9.77;;;21.70;99.90;;;;;;5051253;28;20209;-66
2021/06/08 09:46:19;;;;;;;14.10;11.00;;;21.60;99.90;;;;;;5051031;28;20242;-66
2021/06/08 09:48:53;;;;;;;12.13;10.20;;;21.70;99.90;;;;;;5051106;28;20290;-65
2021/06/08 09:51:19;;;;;;;14.40;9.87;;;21.80;99.90;;;;;;5051208;28;20221;-65
2021/06/08 09:53:45;;;;;;;11.00;7.77;;;21.90;99.90;;;;;;5051318;28;20232;-66
2021/06/08 09:56:13;;;;;;;11.50;9.57;;;21.70;99.90;;;;;;5051105;28;20229;-65
2021/06/08 09:58:45;;;;;;;14.47;10.00;;;21.60;99.90;;;;;;5050595;28;20701;-65
2021/06/08 10:01:14;;;;;;;11.03;9.57;;;21.60;99.90;;;;;;5050836;28;20205;-65
2021/06/08 10:03:44;;;;;;;11.03;9.30;;;21.40;99.90;;;;;;5051436;28;20232;-65
2021/06/08 10:06:11;;;;;;;12.90;9.23;;;21.50;99.90;;;;;;5051279;28;20248;-65
2021/06/08 10:08:39;;;;;;;10.10;8.10;;;21.40;99.90;;;;;;5051351;28;20209;-65
2021/06/08 10:11:15;;;;;;;13.90;9.33;;;21.60;99.90;;;;;;5051431;28;20210;-63
2021/06/08 10:13:41;;;;;;;6.53;5.90;;;21.90;99.90;;;;;;5051003;28;20732;-63
2021/06/08 10:16:08;;;;;;;8.10;5.80;;;22.00;99.90;;;;;;5051037;28;20316;-66
2021/06/08 10:18:43;;;;;;;7.23;5.50;;;22.10;99.90;;;;;;5051281;28;20262;-65
2021/06/08 10:21:09;;;;;;;11.17;7.07;;;22.50;99.90;;;;;;5051098;28;20239;-66
2021/06/08 10:23:35;;;;;;;8.23;7.10;;;22.70;99.90;;;;;;5051009;28;20245;-65
2021/06/08 10:26:04;;;;;;;10.40;6.93;;;22.50;99.90;;;;;;5050594;28;20225;-67
2021/06/08 10:28:31;;;;;;;7.87;6.57;;;22.60;99.90;;;;;;5051035;28;20221;-65
2021/06/08 10:30:58;;;;;;;7.43;6.00;;;22.70;99.90;;;;;;5051116;28;20205;-65
2021/06/08 10:33:25;;;;;;;9.03;5.37;;;23.00;99.90;;;;;;5051050;28;20206;-64
2021/06/08 10:35:54;;;;;;;7.50;6.20;;;23.20;99.90;;;;;;5050597;28;20229;-64
2021/06/08 10:38:22;;;;;;;6.33;5.73;;;22.10;99.90;;;;;;5050922;28;20559;-65
2021/06/08 10:40:52;;;;;;;8.33;5.90;;;21.80;99.90;;;;;;5052315;28;20221;-64
2021/06/08 10:43:20;;;;;;;9.00;7.63;;;21.80;99.90;;;;;;5054827;28;20235;-64
2021/06/08 10:45:47;;;;;;;10.73;6.70;;;21.70;99.90;;;;;;5054232;28;20205;-65
2021/06/08 10:48:17;;;;;;;8.50;6.07;;;22.20;99.90;;;;;;5054575;28;20682;-66
2021/06/08 10:50:45;;;;;;;8.23;6.27;;;22.70;99.90;;;;;;5054322;28;20236;-66
2021/06/08 10:53:27;;;;;;;7.73;6.90;;;23.00;99.90;;;;;;5054336;28;20209;-66
2021/06/08 10:55:53;;;;;;;8.73;6.50;;;22.90;99.90;;;;;;5054435;28;20233;-66
2021/06/08 10:58:43;;;;;;;8.87;7.57;;;22.90;99.90;;;;;;5054703;28;20206;-67
2021/06/08 11:01:43;;;;;;;9.07;7.90;;;22.30;99.90;;;;;;5054345;28;20320;-67
2021/06/08 11:04:12;;;;;;;9.70;8.20;;;22.20;99.90;;;;;;5054668;28;20205;-65
2021/06/08 11:06:48;;;;;;;11.30;8.83;;;22.10;99.90;;;;;;5054018;28;20225;-64
2021/06/08 11:09:16;;;;;;;9.90;8.27;;;21.80;99.90;;;;;;5054164;28;20670;-65
2021/06/08 11:11:48;;;;;;;9.00;8.00;;;22.00;99.90;;;;;;5053912;28;20212;-64
2021/06/08 11:14:58;;;;;;;10.27;7.40;;;22.30;99.90;;;;;;5054033;28;20971;-65
2021/06/08 11:17:42;;;;;;;9.67;7.93;;;22.90;99.90;;;;;;5054152;28;20225;-65
2021/06/08 11:20:26;;;;;;;11.80;8.50;;;23.00;99.90;;;;;;5053969;28;20701;-65
2021/06/08 11:22:57;;;;;;;8.93;7.53;;;23.00;99.90;;;;;;5054062;28;20291;-65
2021/06/08 11:25:41;;;;;;;10.30;8.10;;;22.80;99.90;;;;;;5053614;28;20221;-64
2021/06/08 11:28:10;;;;;;;12.03;8.87;;;22.60;99.90;;;;;;5053780;28;20213;-65
2021/06/08 11:30:38;;;;;;;11.17;7.93;;;22.80;99.90;;;;;;5053383;28;20240;-65
2021/06/08 11:33:08;;;;;;;10.20;8.00;;;23.00;99.90;;;;;;5054116;28;20205;-65
2021/06/08 11:35:40;;;;;;;8.80;7.90;;;23.00;99.90;;;;;;5053292;28;20694;-64
2021/06/08 11:38:25;;;;;;;9.73;8.20;;;22.90;99.90;;;;;;5054633;28;20279;-64
2021/06/08 11:40:58;;;;;;;9.70;7.83;;;22.80;99.90;;;;;;5053222;28;20233;-65
2021/06/08 11:43:44;;;;;;;10.40;7.83;;;22.70;99.90;;;;;;5053539;28;20252;-64
2021/06/08 11:46:12;;;;;;;12.17;8.63;;;22.60;99.90;;;;;;5053224;28;20617;-65
2021/06/08 11:48:40;;;;;;;10.30;8.43;;;22.50;99.90;;;;;;5053491;28;20232;-65
2021/06/08 11:51:35;;;;;;;11.60;8.33;;;22.60;99.90;;;;;;5053122;28;20202;-65
2021/06/08 11:54:03;;;;;;;10.43;8.17;;;22.50;99.90;;;;;;5053589;28;20303;-64
2021/06/08 11:56:49;;;;;;;10.13;7.63;;;22.70;99.90;;;;;;5053023;28;20236;-64
2021/06/08 11:59:17;;;;;;;12.47;8.20;;;22.90;99.90;;;;;;5053208;28;20214;-64
2021/06/08 12:01:44;;;;;;;10.93;8.60;;;23.00;99.90;;;;;;5053007;28;20206;-64
2021/06/08 12:04:11;;;;;;;11.57;8.63;;;23.00;99.90;;;;;;5052723;28;20689;-64
2021/06/08 12:07:03;;;;;;;11.63;7.97;;;23.10;99.90;;;;;;5052900;28;20222;-65
2021/06/08 12:09:31;;;;;;;9.53;7.43;;;23.20;99.90;;;;;;5033901;28;20212;-65
2021/06/08 12:12:04;;;;;;;12.47;8.40;;;23.50;99.90;;;;;;5052843;28;20201;-65
2021/06/08 12:14:31;;;;;;;9.63;8.30;;;23.90;99.90;;;;;;5052713;28;20209;-65
2021/06/08 12:16:58;;;;;;;12.33;8.23;;;24.10;99.90;;;;;;5052667;28;20279;-66
2021/06/08 12:19:29;;;;;;;9.37;7.43;;;24.20;99.90;;;;;;5052594;28;20744;-66
2021/06/08 12:21:57;;;;;;;8.97;7.70;;;24.40;99.90;;;;;;5052855;28;20245;-66
2021/06/08 12:24:24;;;;;;;10.80;7.53;;;24.70;99.90;;;;;;5053012;28;20208;-64
2021/06/08 12:26:52;;;;;;;10.73;7.67;;;24.40;99.90;;;;;;5052038;28;20217;-63
2021/06/08 12:29:20;;;;;;;13.50;8.93;;;23.70;99.90;;;;;;5053023;28;20236;-64
2021/06/08 12:31:58;;;;;;;10.13;7.77;;;23.50;99.90;;;;;;5052533;28;20939;-64
2021/06/08 12:34:25;;;;;;;9.53;8.53;;;23.60;99.90;;;;;;5052937;28;20213;-65
2021/06/08 12:36:53;;;;;;;11.07;9.13;;;23.70;99.90;;;;;;5052313;28;20230;-65
2021/06/08 12:39:26;;;;;;;13.77;9.13;;;23.80;99.90;;;;;;5052469;28;20205;-65